createdAt,value
2018-02-12T00:01:26.170Z,94.51
2018-02-12T00:03:53.692Z,95.24
2018-02-12T00:06:21.224Z,95.93
2018-02-12T00:08:48.730Z,96.24
2018-02-12T00:11:16.238Z,96.24
2018-02-12T00:13:43.743Z,96.29
2018-02-12T00:16:11.273Z,96.13
2018-02-12T00:18:38.880Z,95.63
2018-02-12T00:21:06.398Z,95.31
2018-02-12T00:23:33.917Z,94.83
2018-02-12T00:26:01.418Z,94.38
2018-02-12T00:28:28.950Z,93.99
2018-02-12T00:30:56.460Z,94.22
2018-02-12T00:33:23.985Z,93.96
2018-02-12T00:35:51.512Z,93.97
2018-02-12T00:38:19.043Z,93.73
2018-02-12T00:40:46.558Z,94.36
2018-02-12T00:43:14.097Z,94.71
2018-02-12T00:45:41.609Z,94.90
2018-02-12T00:48:09.104Z,95.06
2018-02-12T00:50:36.613Z,95.36
2018-02-12T00:53:04.130Z,95.32
2018-02-12T00:55:31.654Z,95.68
2018-02-12T00:57:59.170Z,96.31
2018-02-12T01:00:26.708Z,96.59
2018-02-12T01:02:54.239Z,96.78
2018-02-12T01:05:21.759Z,97.27
2018-02-12T01:07:49.307Z,97.56
2018-02-12T01:10:16.821Z,97.21
2018-02-12T01:12:44.334Z,96.99
2018-02-12T01:15:11.868Z,96.92
2018-02-12T01:17:39.363Z,96.74
2018-02-12T01:20:06.863Z,96.85
2018-02-12T01:22:34.383Z,96.64
2018-02-12T01:25:01.890Z,96.20
2018-02-12T01:27:29.468Z,96.17
2018-02-12T01:29:56.986Z,96.16
2018-02-12T01:32:24.513Z,96.18
2018-02-12T01:34:51.997Z,95.97
2018-02-12T01:37:19.558Z,95.80
2018-02-12T01:39:47.074Z,95.48
2018-02-12T01:42:14.592Z,95.57
2018-02-12T01:44:42.399Z,96.00
2018-02-12T01:47:09.938Z,95.89
2018-02-12T01:49:37.465Z,95.77
2018-02-12T01:52:04.983Z,95.84
2018-02-12T01:54:32.514Z,95.83
2018-02-12T01:57:00.054Z,95.86
2018-02-12T01:59:27.581Z,95.94
2018-02-12T02:01:55.118Z,95.48
2018-02-12T02:04:22.630Z,96.01
2018-02-12T02:06:50.136Z,96.09
2018-02-12T02:09:17.658Z,96.44
2018-02-12T02:11:45.176Z,96.44
2018-02-12T02:14:12.684Z,95.88
2018-02-12T02:16:40.298Z,96.38
2018-02-12T02:19:07.793Z,96.01
2018-02-12T02:21:35.314Z,95.59
2018-02-12T02:24:02.828Z,95.57
2018-02-12T02:26:30.339Z,95.08
2018-02-12T02:28:57.864Z,94.74
2018-02-12T02:31:25.393Z,94.55
2018-02-12T02:33:52.908Z,93.94
2018-02-12T02:36:20.413Z,93.72
2018-02-12T02:38:47.945Z,92.99
2018-02-12T02:41:15.459Z,92.65
2018-02-12T02:43:42.976Z,92.15
2018-02-12T02:46:10.480Z,91.25
2018-02-12T02:48:38.005Z,91.65
2018-02-12T02:51:05.518Z,92.14
2018-02-12T02:53:33.068Z,92.44
2018-02-12T02:56:00.572Z,92.64
2018-02-12T02:58:28.073Z,93.18
2018-02-12T03:00:55.588Z,93.80
2018-02-12T03:03:23.095Z,94.07
2018-02-12T03:05:51.244Z,94.67
2018-02-12T03:08:18.744Z,95.06
2018-02-12T03:10:46.272Z,95.08
2018-02-12T03:13:13.794Z,94.99
2018-02-12T03:15:41.313Z,95.00
2018-02-12T03:18:08.840Z,95.30
2018-02-12T03:20:36.357Z,95.58
2018-02-12T03:23:03.865Z,95.71
2018-02-12T03:25:31.374Z,95.84
2018-02-12T03:27:58.877Z,96.02
2018-02-12T03:30:26.393Z,95.94
2018-02-12T03:32:53.902Z,96.06
2018-02-12T03:35:21.417Z,96.00
2018-02-12T03:37:48.928Z,96.26
2018-02-12T03:40:16.448Z,96.25
2018-02-12T03:42:43.958Z,96.27
2018-02-12T03:45:11.484Z,96.62
2018-02-12T03:47:39.000Z,96.72
2018-02-12T03:50:06.579Z,96.76
2018-02-12T03:52:34.095Z,96.58
2018-02-12T03:55:01.602Z,96.81
2018-02-12T03:57:29.114Z,96.96
2018-02-12T03:59:56.621Z,96.75
2018-02-12T04:02:24.153Z,96.83
2018-02-12T04:04:51.707Z,96.61
2018-02-12T04:07:19.236Z,96.19
2018-02-12T04:09:46.744Z,96.31
2018-02-12T04:12:14.301Z,96.30
2018-02-12T04:14:41.820Z,96.25
2018-02-12T04:17:09.373Z,96.20
2018-02-12T04:19:36.909Z,95.48
2018-02-12T04:22:04.428Z,95.44
2018-02-12T04:24:31.937Z,96.10
2018-02-12T04:26:59.443Z,96.44
2018-02-12T04:29:26.964Z,96.37
2018-02-12T04:31:54.463Z,96.44
2018-02-12T04:34:21.978Z,96.42
2018-02-12T04:36:49.493Z,94.94
2018-02-12T04:39:16.994Z,93.79
2018-02-12T04:41:44.523Z,92.88
2018-02-12T04:44:12.030Z,92.23
2018-02-12T04:46:39.593Z,91.59
2018-02-12T04:49:07.128Z,89.91
2018-02-12T04:51:34.642Z,91.32
2018-02-12T04:54:02.145Z,92.24
2018-02-12T04:56:29.649Z,93.22
2018-02-12T04:58:57.154Z,92.38
2018-02-12T05:01:24.721Z,92.73
2018-02-12T05:03:52.254Z,92.78
2018-02-12T05:06:19.764Z,91.96
2018-02-12T05:08:47.284Z,93.16
2018-02-12T05:11:14.798Z,93.13
2018-02-12T05:13:42.302Z,92.76
2018-02-12T05:16:09.834Z,94.17
2018-02-12T05:18:37.364Z,94.03
2018-02-12T05:21:04.874Z,93.87
2018-02-12T05:23:32.392Z,93.99
2018-02-12T05:25:59.904Z,94.24
2018-02-12T05:28:27.412Z,94.26
2018-02-12T05:30:54.915Z,94.18
2018-02-12T05:33:22.419Z,94.20
2018-02-12T05:35:49.938Z,94.40
2018-02-12T05:38:17.448Z,94.41
2018-02-12T05:40:44.948Z,94.22
2018-02-12T05:43:12.469Z,94.24
2018-02-12T05:45:39.981Z,95.46
2018-02-12T05:48:07.510Z,95.80
2018-02-12T05:50:35.033Z,95.84
2018-02-12T05:53:02.548Z,95.90
2018-02-12T05:55:30.073Z,95.95
2018-02-12T05:57:57.603Z,96.87
2018-02-12T06:00:25.155Z,96.92
2018-02-12T06:02:52.674Z,96.79
2018-02-12T06:05:20.192Z,96.61
2018-02-12T06:07:47.719Z,96.06
2018-02-12T06:10:15.218Z,95.66
2018-02-12T06:12:42.753Z,95.49
2018-02-12T06:15:10.262Z,94.61
2018-02-12T06:17:37.794Z,92.74
2018-02-12T06:20:05.304Z,91.38
2018-02-12T06:22:32.874Z,90.47
2018-02-12T06:25:00.399Z,90.42
2018-02-12T06:27:27.919Z,89.54
2018-02-12T06:29:55.449Z,87.96
2018-02-12T06:32:22.964Z,87.60
2018-02-12T06:34:50.493Z,86.74
2018-02-12T06:37:18.013Z,86.42
2018-02-12T06:39:45.538Z,86.28
2018-02-12T06:42:13.058Z,86.53
2018-02-12T06:44:40.570Z,86.52
2018-02-12T06:47:08.097Z,86.90
2018-02-12T06:49:35.608Z,87.13
2018-02-12T06:52:03.154Z,87.06
2018-02-12T06:54:30.709Z,87.68
2018-02-12T06:56:58.268Z,87.99
2018-02-12T06:59:25.774Z,88.67
2018-02-12T07:01:53.271Z,87.73
2018-02-12T07:04:20.763Z,87.60
2018-02-12T07:06:48.288Z,88.11
2018-02-12T07:09:15.794Z,88.22
2018-02-12T07:11:43.315Z,88.84
2018-02-12T07:14:10.848Z,88.95
2018-02-12T07:16:38.369Z,88.04
2018-02-12T07:19:05.879Z,87.86
2018-02-12T07:21:33.394Z,86.78
2018-02-12T07:24:00.961Z,86.75
2018-02-12T07:26:28.475Z,87.20
2018-02-12T07:28:55.989Z,87.87
2018-02-12T07:31:23.505Z,88.80
2018-02-12T07:33:51.019Z,89.09
2018-02-12T07:36:18.540Z,88.72
2018-02-12T07:38:46.073Z,87.54
2018-02-12T07:41:13.600Z,88.79
2018-02-12T07:43:41.130Z,89.64
2018-02-12T07:46:08.663Z,89.53
2018-02-12T07:48:36.180Z,89.64
2018-02-12T07:51:03.699Z,89.23
2018-02-12T07:53:31.238Z,89.37
2018-02-12T07:55:58.754Z,89.10
2018-02-12T07:58:26.278Z,89.26
2018-02-12T08:00:53.805Z,88.68
2018-02-12T08:03:21.314Z,87.77
2018-02-12T08:05:48.816Z,87.17
2018-02-12T08:08:16.350Z,86.57
2018-02-12T08:10:43.900Z,86.65
2018-02-12T08:13:11.423Z,86.41
2018-02-12T08:15:38.934Z,85.77
2018-02-12T08:18:06.654Z,85.51
2018-02-12T08:20:34.183Z,83.50
2018-02-12T08:23:01.821Z,80.45
2018-02-12T08:25:29.354Z,79.79
2018-02-12T08:27:56.940Z,81.21
2018-02-12T08:30:25.180Z,77.60
2018-02-12T08:32:52.695Z,76.27
2018-02-12T08:35:20.214Z,76.28
2018-02-12T08:37:47.815Z,76.88
2018-02-12T08:40:15.350Z,76.09
2018-02-12T08:42:42.889Z,76.50
2018-02-12T08:45:10.400Z,76.37
2018-02-12T08:47:37.916Z,73.89
2018-02-12T08:50:05.434Z,74.67
2018-02-12T08:52:32.961Z,74.16
2018-02-12T08:55:00.488Z,73.63
2018-02-12T08:57:28.005Z,72.66
2018-02-12T08:59:55.509Z,69.88
2018-02-12T09:02:23.018Z,69.53
2018-02-12T09:04:50.636Z,68.15
2018-02-12T09:07:18.164Z,65.22
2018-02-12T09:09:45.744Z,63.92
2018-02-12T09:12:13.269Z,62.93
2018-02-12T09:14:40.794Z,60.39
2018-02-12T09:17:08.539Z,62.63
2018-02-12T09:19:36.050Z,59.82
2018-02-12T09:22:03.594Z,59.81
2018-02-12T09:24:31.125Z,55.23
2018-02-12T09:26:58.638Z,53.63
2018-02-12T09:29:26.174Z,52.88
2018-02-12T09:31:53.723Z,54.78
2018-02-12T09:34:21.240Z,53.82
2018-02-12T09:36:48.745Z,49.90
2018-02-12T09:39:16.258Z,49.82
2018-02-12T09:41:43.811Z,48.27
2018-02-12T09:44:11.383Z,47.03
2018-02-12T09:46:38.899Z,50.70
2018-02-12T09:49:06.418Z,49.88
2018-02-12T09:51:33.943Z,50.74
2018-02-12T09:54:01.463Z,45.67
2018-02-12T09:56:28.989Z,44.69
2018-02-12T09:58:56.520Z,41.01
2018-02-12T10:01:24.039Z,38.31
2018-02-12T10:03:51.658Z,40.69
2018-02-12T10:06:19.184Z,42.27
2018-02-12T10:08:46.703Z,40.74
2018-02-12T10:11:14.222Z,38.08
2018-02-12T10:13:41.864Z,42.63
2018-02-12T10:16:09.380Z,43.97
2018-02-12T10:18:36.893Z,45.81
2018-02-12T10:21:04.450Z,46.04
2018-02-12T10:23:31.971Z,50.86
2018-02-12T10:25:59.491Z,50.90
2018-02-12T10:28:27.016Z,50.72
2018-02-12T10:30:54.553Z,54.70
2018-02-12T10:33:22.096Z,55.59
2018-02-12T10:35:49.609Z,55.67
2018-02-12T10:38:17.123Z,57.02
2018-02-12T10:40:44.678Z,56.66
2018-02-12T10:43:12.231Z,55.22
2018-02-12T10:45:39.769Z,55.55
2018-02-12T10:48:07.285Z,52.85
2018-02-12T10:50:34.803Z,51.66
2018-02-12T10:53:02.339Z,51.23
2018-02-12T10:55:29.873Z,52.09
2018-02-12T10:57:57.379Z,57.01
2018-02-12T11:00:24.880Z,54.71
2018-02-12T11:02:52.394Z,56.72
2018-02-12T11:05:19.949Z,54.42
2018-02-12T11:07:47.444Z,54.40
2018-02-12T11:10:14.945Z,56.61
2018-02-12T11:12:42.463Z,54.29
2018-02-12T11:15:10.010Z,53.14
2018-02-12T11:17:37.559Z,51.15
2018-02-12T11:20:05.089Z,51.95
2018-02-12T11:22:32.628Z,52.75
2018-02-12T11:25:00.159Z,52.41
2018-02-12T11:27:27.696Z,49.91
2018-02-12T11:29:55.218Z,44.73
2018-02-12T11:32:22.740Z,44.19
2018-02-12T11:34:50.264Z,43.03
2018-02-12T11:37:17.795Z,42.06
2018-02-12T11:39:45.333Z,44.36
2018-02-12T11:42:12.871Z,45.74
2018-02-12T11:44:40.404Z,49.88
2018-02-12T11:47:07.903Z,48.27
2018-02-12T11:49:35.437Z,50.08
2018-02-12T11:52:02.941Z,48.74
2018-02-12T11:54:30.453Z,47.21
2018-02-12T11:56:57.963Z,42.25
2018-02-12T11:59:25.474Z,40.81
2018-02-12T12:01:53.008Z,42.89
2018-02-12T12:04:20.631Z,47.35
2018-02-12T12:06:48.139Z,46.63
2018-02-12T12:09:15.679Z,44.50
2018-02-12T12:11:43.243Z,39.99
2018-02-12T12:14:10.769Z,33.54
2018-02-12T12:16:38.303Z,28.61
2018-02-12T12:19:05.814Z,38.03
2018-02-12T12:21:33.560Z,43.35
2018-02-12T12:24:01.084Z,45.41
2018-02-12T12:26:28.700Z,46.69
2018-02-12T12:28:56.218Z,48.87
2018-02-12T12:31:23.720Z,48.38
2018-02-12T12:33:51.252Z,42.61
2018-02-12T12:36:18.778Z,42.59
2018-02-12T12:38:46.409Z,44.06
2018-02-12T12:41:13.908Z,46.96
2018-02-12T12:43:41.444Z,49.12
2018-02-12T12:46:08.985Z,49.83
2018-02-12T12:48:36.560Z,45.97
2018-02-12T12:51:04.080Z,45.61
2018-02-12T12:53:31.599Z,46.13
2018-02-12T12:55:59.134Z,47.13
2018-02-12T12:58:26.656Z,46.12
2018-02-12T13:00:54.186Z,48.54
2018-02-12T13:03:21.700Z,50.23
2018-02-12T13:05:49.201Z,52.15
2018-02-12T13:08:16.695Z,52.61
2018-02-12T13:10:44.223Z,52.15
2018-02-12T13:13:11.751Z,51.11
2018-02-12T13:15:39.316Z,53.62
2018-02-12T13:18:06.826Z,54.11
2018-02-12T13:20:34.344Z,51.50
2018-02-12T13:23:01.854Z,49.07
2018-02-12T13:25:29.405Z,48.60
2018-02-12T13:27:56.946Z,43.13
2018-02-12T13:30:24.529Z,40.81
2018-02-12T13:32:52.143Z,38.35
2018-02-12T13:35:19.689Z,40.71
2018-02-12T13:37:47.243Z,46.91
2018-02-12T13:40:14.761Z,47.32
2018-02-12T13:42:42.281Z,50.05
2018-02-12T13:45:10.659Z,51.51
2018-02-12T13:47:38.156Z,52.16
2018-02-12T13:50:05.895Z,50.32
2018-02-12T13:52:33.576Z,51.74
2018-02-12T13:55:01.205Z,53.45
2018-02-12T13:57:28.710Z,54.23
2018-02-12T13:59:56.231Z,55.46
2018-02-12T14:02:23.744Z,55.89
2018-02-12T14:04:51.342Z,57.65
2018-02-12T14:07:18.905Z,56.58
2018-02-12T14:09:46.427Z,55.97
2018-02-12T14:12:13.980Z,58.77
2018-02-12T14:14:41.533Z,62.73
2018-02-12T14:17:09.181Z,64.13
2018-02-12T14:19:36.731Z,63.89
2018-02-12T14:22:04.293Z,64.68
2018-02-12T14:24:31.884Z,64.34
2018-02-12T14:26:59.391Z,65.25
2018-02-12T14:29:26.913Z,65.62
2018-02-12T14:31:54.441Z,64.80
2018-02-12T14:34:21.989Z,63.05
2018-02-12T14:36:49.506Z,63.32
2018-02-12T14:39:17.021Z,62.70
2018-02-12T14:41:44.529Z,62.68
2018-02-12T14:44:12.030Z,63.39
2018-02-12T14:46:39.530Z,63.74
2018-02-12T14:49:07.065Z,64.61
2018-02-12T14:51:34.824Z,64.22
2018-02-12T14:54:02.371Z,64.76
2018-02-12T14:56:29.901Z,63.78
2018-02-12T14:58:57.435Z,67.01
2018-02-12T15:01:24.988Z,65.44
2018-02-12T15:03:52.508Z,66.87
2018-02-12T15:06:20.156Z,66.23
2018-02-12T15:08:47.716Z,65.61
2018-02-12T15:11:15.249Z,65.91
2018-02-12T15:13:42.818Z,65.52
2018-02-12T15:16:10.359Z,65.94
2018-02-12T15:18:37.873Z,65.14
2018-02-12T15:21:05.419Z,62.95
2018-02-12T15:23:32.986Z,64.00
2018-02-12T15:26:00.551Z,63.54
2018-02-12T15:28:28.461Z,62.93
2018-02-12T15:30:56.040Z,62.34
2018-02-12T15:33:23.582Z,59.29
2018-02-12T15:35:51.717Z,56.12
2018-02-12T15:38:19.311Z,57.48
2018-02-12T15:40:46.862Z,57.91
2018-02-12T15:43:14.379Z,59.36
2018-02-12T15:45:41.911Z,59.24
2018-02-12T15:48:09.473Z,59.78
2018-02-12T15:50:37.013Z,60.32
2018-02-12T15:53:04.555Z,60.90
2018-02-12T15:55:32.178Z,60.12
2018-02-12T15:57:59.700Z,59.59
2018-02-12T16:00:27.216Z,59.43
2018-02-12T16:02:54.732Z,60.23
2018-02-12T16:05:22.271Z,60.73
2018-02-12T16:07:49.812Z,61.98
2018-02-12T16:10:17.308Z,61.73
2018-02-12T16:12:44.949Z,61.63
2018-02-12T16:15:12.819Z,63.11
2018-02-12T16:17:40.384Z,63.51
2018-02-12T16:20:07.925Z,63.92
2018-02-12T16:22:35.556Z,64.27
2018-02-12T16:25:03.082Z,61.61
2018-02-12T16:27:30.658Z,61.40
2018-02-12T16:29:58.179Z,62.38
2018-02-12T16:32:25.699Z,61.66
2018-02-12T16:34:53.226Z,62.14
2018-02-12T16:37:20.729Z,61.65
2018-02-12T16:39:48.292Z,59.86
2018-02-12T16:42:15.813Z,61.98
2018-02-12T16:44:43.344Z,63.03
2018-02-12T16:47:10.889Z,63.25
2018-02-12T16:49:38.449Z,63.79
2018-02-12T16:52:06.045Z,63.54
2018-02-12T16:54:33.575Z,62.81
2018-02-12T16:57:01.128Z,62.74
2018-02-12T16:59:28.640Z,65.06
2018-02-12T17:01:56.175Z,65.63
2018-02-12T17:04:23.705Z,67.55
2018-02-12T17:06:51.209Z,68.71
2018-02-12T17:09:18.823Z,69.82
2018-02-12T17:11:46.337Z,69.83
2018-02-12T17:14:13.883Z,71.04
2018-02-12T17:16:41.410Z,72.29
2018-02-12T17:19:08.938Z,73.63
2018-02-12T17:21:36.479Z,74.66
2018-02-12T17:24:04.045Z,73.97
2018-02-12T17:26:31.578Z,74.25
2018-02-12T17:28:59.179Z,75.25
2018-02-12T17:31:26.719Z,75.84
2018-02-12T17:33:54.249Z,76.77
2018-02-12T17:36:21.789Z,78.29
2018-02-12T17:38:49.346Z,78.43
2018-02-12T17:41:16.897Z,78.97
2018-02-12T17:43:44.481Z,79.53
2018-02-12T17:46:12.130Z,78.12
2018-02-12T17:48:39.658Z,78.53
2018-02-12T17:51:07.206Z,77.91
2018-02-12T17:53:34.711Z,77.50
2018-02-12T17:56:02.249Z,77.86
2018-02-12T17:58:29.805Z,78.25
2018-02-12T18:00:57.333Z,78.34
2018-02-12T18:03:24.849Z,78.05
2018-02-12T18:05:52.428Z,77.20
2018-02-12T18:08:19.952Z,78.83
2018-02-12T18:10:47.491Z,78.62
2018-02-12T18:13:15.028Z,78.18
2018-02-12T18:15:42.578Z,80.68
2018-02-12T18:18:10.136Z,81.92
2018-02-12T18:20:37.730Z,81.32
2018-02-12T18:23:05.809Z,80.44
2018-02-12T18:25:33.518Z,80.70
2018-02-12T18:28:01.046Z,82.44
2018-02-12T18:30:28.560Z,82.63
2018-02-12T18:32:56.234Z,83.42
2018-02-12T18:35:23.796Z,84.30
2018-02-12T18:37:51.864Z,85.12
2018-02-12T18:40:19.704Z,85.44
2018-02-12T18:42:47.234Z,85.31
2018-02-12T18:45:14.888Z,85.52
2018-02-12T18:47:42.928Z,84.96
2018-02-12T18:50:11.120Z,85.38
2018-02-12T18:52:38.863Z,85.73
2018-02-12T18:55:06.694Z,85.70
2018-02-12T18:57:35.473Z,85.67
2018-02-12T19:00:03.095Z,86.04
2018-02-12T19:02:30.897Z,85.55
2018-02-12T19:04:58.633Z,85.54
2018-02-12T19:07:26.310Z,85.51
2018-02-12T19:09:53.870Z,85.96
2018-02-12T19:12:21.978Z,85.56
2018-02-12T19:14:49.800Z,84.93
2018-02-12T19:17:17.478Z,85.09
2018-02-12T19:19:45.440Z,85.17
2018-02-12T19:22:13.573Z,85.52
2018-02-12T19:24:41.350Z,85.36
2018-02-12T19:27:08.976Z,84.64
2018-02-12T19:29:37.116Z,83.91
2018-02-12T19:32:05.438Z,85.16
2018-02-12T19:34:33.329Z,84.36
2018-02-12T19:37:01.145Z,84.23
2018-02-12T19:39:28.772Z,84.88
2018-02-12T19:41:57.016Z,85.26
2018-02-12T19:44:24.804Z,85.52
2018-02-12T19:46:52.573Z,84.95
2018-02-12T19:49:20.140Z,84.47
2018-02-12T19:51:47.665Z,84.79
2018-02-12T19:54:15.266Z,85.23
2018-02-12T19:56:42.801Z,84.97
2018-02-12T19:59:10.371Z,84.66
2018-02-12T20:01:37.964Z,84.86
2018-02-12T20:04:05.511Z,85.64
2018-02-12T20:06:33.058Z,85.59
2018-02-12T20:09:00.744Z,84.62
2018-02-12T20:11:28.617Z,85.19
2018-02-12T20:13:56.160Z,85.14
2018-02-12T20:16:23.689Z,84.91
2018-02-12T20:18:51.206Z,85.46
2018-02-12T20:21:18.739Z,85.56
2018-02-12T20:23:46.391Z,84.40
2018-02-12T20:26:14.044Z,84.85
2018-02-12T20:28:41.594Z,84.15
2018-02-12T20:31:09.160Z,84.79
2018-02-12T20:33:36.712Z,85.39
2018-02-12T20:36:04.351Z,86.19
2018-02-12T20:38:31.981Z,86.08
2018-02-12T20:40:59.520Z,86.11
2018-02-12T20:43:27.075Z,86.12
2018-02-12T20:45:54.665Z,86.58
2018-02-12T20:48:22.334Z,86.74
2018-02-12T20:50:49.862Z,86.77
2018-02-12T20:53:17.570Z,85.93
2018-02-12T20:55:45.100Z,87.06
2018-02-12T20:58:12.711Z,86.92
2018-02-12T21:00:40.275Z,86.60
2018-02-12T21:03:07.812Z,86.43
2018-02-12T21:05:35.376Z,86.30
2018-02-12T21:08:02.920Z,86.18
2018-02-12T21:10:30.600Z,86.85
2018-02-12T21:12:58.163Z,87.79
2018-02-12T21:15:25.803Z,88.62
2018-02-12T21:17:53.563Z,88.63
2018-02-12T21:20:21.189Z,88.61
2018-02-12T21:22:48.714Z,87.73
2018-02-12T21:25:16.250Z,87.16
2018-02-12T21:27:43.837Z,86.86
2018-02-12T21:30:11.441Z,86.37
2018-02-12T21:32:39.057Z,86.76
2018-02-12T21:35:06.733Z,87.36
2018-02-12T21:37:34.320Z,87.75
2018-02-12T21:40:01.850Z,88.80
2018-02-12T21:42:29.406Z,88.38
2018-02-12T21:44:56.931Z,88.44
2018-02-12T21:47:24.467Z,88.40
2018-02-12T21:49:52.060Z,89.04
2018-02-12T21:52:19.613Z,89.48
2018-02-12T21:54:47.160Z,89.35
2018-02-12T21:57:14.672Z,89.00
2018-02-12T21:59:42.203Z,89.50
2018-02-12T22:02:09.818Z,89.61
2018-02-12T22:04:37.339Z,89.90
2018-02-12T22:07:04.920Z,89.83
2018-02-12T22:09:32.426Z,89.76
2018-02-12T22:11:59.978Z,89.94
2018-02-12T22:14:27.489Z,90.55
2018-02-12T22:16:55.005Z,90.41
2018-02-12T22:19:22.505Z,90.32
2018-02-12T22:21:50.031Z,90.25
2018-02-12T22:24:17.549Z,91.00
2018-02-12T22:26:45.100Z,91.37
2018-02-12T22:29:12.629Z,91.61
2018-02-12T22:31:40.284Z,91.66
2018-02-12T22:34:07.811Z,91.63
2018-02-12T22:36:35.461Z,91.89
2018-02-12T22:39:02.997Z,91.87
2018-02-12T22:41:30.519Z,92.15
2018-02-12T22:43:58.076Z,92.37
2018-02-12T22:46:25.759Z,92.48
2018-02-12T22:48:53.291Z,92.61
2018-02-12T22:51:20.829Z,93.03
2018-02-12T22:53:48.374Z,93.10
2018-02-12T22:56:15.899Z,93.19
2018-02-12T22:58:43.436Z,92.88
2018-02-12T23:01:10.964Z,92.75
2018-02-12T23:03:38.494Z,92.87
2018-02-12T23:06:06.011Z,92.84
2018-02-12T23:08:33.566Z,92.66
2018-02-12T23:11:01.082Z,92.37
2018-02-12T23:13:28.639Z,92.22
2018-02-12T23:15:56.186Z,91.99
2018-02-12T23:18:23.784Z,92.59
2018-02-12T23:20:51.691Z,92.49
2018-02-12T23:23:19.266Z,92.37
2018-02-12T23:25:46.777Z,91.99
2018-02-12T23:28:14.323Z,92.06
2018-02-12T23:30:41.852Z,92.00
2018-02-12T23:33:09.434Z,92.21
2018-02-12T23:35:36.955Z,92.03
2018-02-12T23:38:04.507Z,92.56
2018-02-12T23:40:32.029Z,92.34
2018-02-12T23:42:59.700Z,92.53
2018-02-12T23:45:27.226Z,92.08
2018-02-12T23:47:54.744Z,91.17
2018-02-12T23:50:22.261Z,90.84
2018-02-12T23:52:49.789Z,90.41
2018-02-12T23:55:17.319Z,90.23
2018-02-12T23:57:44.828Z,90.04
